Time;durP1;ratioP1;P1;durP2;ratioP2;P2;SDS_P1;SDS_P2;PMS_P1;PMS_P2;Temp;Humidity;BMP_temperature;BMP_pressure;BME280_temperature;BME280_humidity;BME280_pressure;Samples;Min_cycle;Max_cycle;Signal;HPM_P1;HPM_P2
2021/09/15 00:00:23;;;;;;;6.20;3.65;;;;;;;28.49;41.69;96475.81;4976784;28;20695;-29
2021/09/15 00:02:49;;;;;;;7.47;2.92;;;;;;;28.50;41.80;96474.91;4977266;28;20382;-30
2021/09/15 00:05:14;;;;;;;4.70;3.08;;;;;;;28.50;41.55;96476.66;4986176;28;20030;-29
2021/09/15 00:07:40;;;;;;;5.50;3.45;;;;;;;28.52;41.53;96478.25;4971719;28;20085;-31
2021/09/15 00:10:06;;;;;;;7.07;3.05;;;;;;;28.53;41.64;96479.09;4977092;28;20034;-28
2021/09/15 00:12:31;;;;;;;8.77;3.10;;;;;;;28.53;41.35;96468.56;4980659;28;20053;-31
2021/09/15 00:14:57;;;;;;;5.32;3.30;;;;;;;28.54;41.53;96468.44;4980407;28;20177;-28
2021/09/15 00:17:22;;;;;;;4.50;3.00;;;;;;;28.56;41.62;96478.88;4975085;28;20436;-29
2021/09/15 00:19:47;;;;;;;4.93;3.13;;;;;;;28.55;41.57;96471.91;4975322;28;20042;-28
2021/09/15 00:22:13;;;;;;;4.70;3.10;;;;;;;28.56;41.44;96470.97;4979187;28;20080;-29
2021/09/15 00:24:38;;;;;;;4.93;3.05;;;;;;;28.56;41.61;96470.97;4976119;28;20061;-29
2021/09/15 00:27:04;;;;;;;5.22;3.08;;;;;;;28.58;41.48;96476.97;4978728;28;20030;-30
2021/09/15 00:29:29;;;;;;;4.32;2.70;;;;;;;28.58;41.38;96476.97;4975262;28;20069;-29
2021/09/15 00:31:55;;;;;;;6.10;3.20;;;;;;;28.60;41.35;96468.97;4977479;28;20058;-30
2021/09/15 00:34:20;;;;;;;5.38;3.15;;;;;;;28.59;41.29;96470.75;4979591;28;20035;-30
2021/09/15 00:36:46;;;;;;;3.88;3.00;;;;;;;28.60;41.31;96461.06;4973395;28;20045;-32
2021/09/15 00:39:11;;;;;;;4.47;2.85;;;;;;;28.60;41.40;96469.78;4972365;28;20033;-30
2021/09/15 00:41:36;;;;;;;5.93;3.05;;;;;;;28.59;41.38;96457.56;4977250;28;20049;-30
2021/09/15 00:44:07;;;;;;;4.45;2.65;;;;;;;28.59;41.49;96457.56;4978058;28;20038;-29
2021/09/15 00:46:33;;;;;;;4.27;2.80;;;;;;;28.61;41.42;96455.69;4979909;28;20030;-30
2021/09/15 00:48:58;;;;;;;3.67;2.80;;;;;;;28.61;41.36;96460.97;4978569;28;20124;-29
2021/09/15 00:51:24;;;;;;;22.27;3.28;;;;;;;28.61;41.47;96460.97;4977618;28;20931;-29
2021/09/15 00:53:49;;;;;;;3.78;2.97;;;;;;;28.62;41.38;96456.50;4973506;28;20156;-28
2021/09/15 00:56:14;;;;;;;5.28;3.22;;;;;;;28.61;41.45;96450.41;4981458;28;20037;-29
2021/09/15 00:58:40;;;;;;;4.30;2.90;;;;;;;28.61;41.30;96445.16;4976564;28;20038;-29
2021/09/15 01:01:05;;;;;;;2.95;2.72;;;;;;;28.61;41.49;96444.28;4978644;28;20033;-32
2021/09/15 01:03:31;;;;;;;4.30;2.75;;;;;;;28.61;41.45;96445.16;4978762;28;20572;-29
2021/09/15 01:05:56;;;;;;;5.00;2.90;;;;;;;28.62;41.35;96438.91;4978296;28;20030;-30
2021/09/15 01:08:22;;;;;;;5.95;3.00;;;;;;;28.61;41.27;96434.59;4975763;28;20022;-29
2021/09/15 01:10:48;;;;;;;6.20;2.90;;;;;;;28.62;41.45;96436.28;4977148;28;20114;-30
2021/09/15 01:13:13;;;;;;;4.25;3.08;;;;;;;28.61;41.24;96429.31;4972544;28;20022;-31
2021/09/15 01:15:38;;;;;;;5.03;2.90;;;;;;;28.63;41.33;96437.97;4982257;28;20598;-29
2021/09/15 01:18:17;;;;;;;8.48;2.78;;;;;;;28.63;41.42;96432.69;4978426;28;20088;-30
2021/09/15 01:20:42;;;;;;;4.28;2.80;;;;;;;28.63;41.25;96435.31;4976291;28;20037;-27
2021/09/15 01:23:08;;;;;;;4.18;2.80;;;;;;;28.63;41.64;96426.56;4977749;28;20067;-29
2021/09/15 01:25:33;;;;;;;4.90;2.92;;;;;;;28.64;41.54;96431.72;4981206;28;20088;-30
2021/09/15 01:27:59;;;;;;;4.72;3.10;;;;;;;28.63;41.22;96430.06;4981220;28;20419;-29
2021/09/15 01:30:24;;;;;;;5.72;2.80;;;;;;;28.64;41.59;96418.53;4977681;28;20578;-30
2021/09/15 01:32:50;;;;;;;3.40;2.80;;;;;;;28.63;41.40;96419.50;4978977;28;20038;-29
2021/09/15 01:35:15;;;;;;;4.32;2.80;;;;;;;28.62;41.45;96415.19;4981626;28;20448;-29
2021/09/15 01:37:40;;;;;;;3.45;2.88;;;;;;;28.65;41.54;96420.22;4974622;28;20034;-28
2021/09/15 01:40:06;;;;;;;4.78;2.97;;;;;;;28.64;41.41;96415.09;4978153;28;20038;-28
2021/09/15 01:42:32;;;;;;;4.72;3.10;;;;;;;28.65;41.39;96425.50;4983253;28;20113;-30
2021/09/15 01:44:57;;;;;;;4.88;3.03;;;;;;;28.63;41.35;96411.59;4977570;28;20561;-31
2021/09/15 01:47:23;;;;;;;4.18;2.95;;;;;;;28.65;41.45;96409.69;4978406;28;20022;-30
2021/09/15 01:49:49;;;;;;;4.45;3.00;;;;;;;28.64;41.36;96408.00;4973709;28;20026;-28
2021/09/15 01:52:15;;;;;;;4.60;3.10;;;;;;;28.64;41.57;96408.00;4978200;28;20034;-32
2021/09/15 01:54:40;;;;;;;3.75;2.70;;;;;;;28.65;41.56;96404.41;4986049;28;20549;-32
2021/09/15 01:57:06;;;;;;;6.75;2.78;;;;;;;28.65;41.49;96399.13;4979412;28;20062;-30
2021/09/15 01:59:31;;;;;;;4.63;3.00;;;;;;;28.64;41.47;96402.72;4972302;28;20153;-29
2021/09/15 02:01:57;;;;;;;4.78;2.55;;;;;;;28.65;41.13;96399.13;4975828;28;20038;-29
2021/09/15 02:04:22;;;;;;;3.88;3.00;;;;;;;28.65;41.38;96401.75;4977200;28;20484;-30
2021/09/15 02:06:47;;;;;;;4.68;2.80;;;;;;;28.66;41.36;96394.72;4980175;28;20034;-30
2021/09/15 02:09:13;;;;;;;4.30;2.85;;;;;;;28.67;41.38;96397.25;4979873;28;20034;-31
2021/09/15 02:11:38;;;;;;;8.52;2.92;;;;;;;28.66;41.29;96392.94;4974932;28;20046;-30
2021/09/15 02:14:04;;;;;;;5.30;3.15;;;;;;;28.67;41.28;96397.25;4979192;28;20030;-28
2021/09/15 02:16:30;;;;;;;3.05;2.60;;;;;;;28.66;41.36;96400.84;4980139;28;20034;-34
2021/09/15 02:18:55;;;;;;;5.75;2.67;;;;;;;28.65;41.39;96393.84;4979798;28;20444;-33
2021/09/15 02:21:20;;;;;;;3.58;2.90;;;;;;;28.67;41.40;96410.44;4975627;28;20049;-29
2021/09/15 02:23:46;;;;;;;6.00;2.70;;;;;;;28.67;41.31;96402.50;4957104;28;20085;-32
2021/09/15 02:26:11;;;;;;;3.75;2.83;;;;;;;28.68;41.31;96398.09;4984071;28;21430;-29
2021/09/15 02:28:37;;;;;;;4.43;2.75;;;;;;;28.67;41.38;96388.47;4982533;28;20030;-30
2021/09/15 02:31:03;;;;;;;4.00;2.85;;;;;;;28.67;41.10;96389.34;4981350;28;20121;-29
2021/09/15 02:33:28;;;;;;;5.70;2.95;;;;;;;28.68;40.99;96388.38;4984196;28;20215;-31
2021/09/15 02:35:54;;;;;;;5.97;2.90;;;;;;;28.68;41.34;96385.75;4982940;28;20417;-31
2021/09/15 02:38:19;;;;;;;4.57;2.67;;;;;;;28.68;41.28;96392.81;4980623;28;20033;-29
2021/09/15 02:40:45;;;;;;;4.03;2.90;;;;;;;28.68;41.24;96385.75;4982090;28;20109;-30
2021/09/15 02:43:10;;;;;;;5.70;2.50;;;;;;;28.66;41.36;96382.38;4980187;28;20093;-30
2021/09/15 02:45:35;;;;;;;4.85;3.10;;;;;;;28.68;41.11;96385.75;4977337;28;20663;-29
2021/09/15 02:48:01;;;;;;;3.60;2.90;;;;;;;28.68;41.21;96377.81;4986541;28;20045;-29
2021/09/15 02:50:26;;;;;;;7.80;2.90;;;;;;;28.69;41.28;96379.50;4985117;28;20528;-31
2021/09/15 02:52:51;;;;;;;4.72;3.13;;;;;;;28.68;41.09;96372.56;4976693;28;20290;-29
2021/09/15 02:55:17;;;;;;;4.53;2.40;;;;;;;28.69;41.08;96373.41;4979510;28;21556;-29
2021/09/15 02:57:42;;;;;;;3.83;2.75;;;;;;;28.70;41.22;96375.09;4981648;28;20045;-28
2021/09/15 03:00:08;;;;;;;3.75;2.78;;;;;;;28.69;41.11;96370.78;4978918;28;20026;-29
2021/09/15 03:02:34;;;;;;;6.03;2.72;;;;;;;28.67;41.20;96365.59;4976423;28;20449;-30
2021/09/15 03:04:59;;;;;;;4.00;2.70;;;;;;;28.69;41.01;96374.22;4977153;28;20022;-30
2021/09/15 03:07:24;;;;;;;5.05;3.10;;;;;;;28.69;41.12;96373.41;4980988;28;20022;-29
2021/09/15 03:09:50;;;;;;;4.43;2.80;;;;;;;28.71;41.21;96373.31;4976369;28;20030;-32
2021/09/15 03:12:15;;;;;;;4.15;2.40;;;;;;;28.71;41.16;96373.31;4984762;28;20508;-29
2021/09/15 03:14:41;;;;;;;4.50;2.40;;;;;;;28.71;41.19;96370.66;4983255;28;20066;-30
2021/09/15 03:17:06;;;;;;;3.88;2.50;;;;;;;28.71;41.26;96374.13;4977870;28;20882;-30
2021/09/15 03:19:32;;;;;;;4.20;2.70;;;;;;;28.71;41.09;96370.66;4979377;28;20110;-30
2021/09/15 03:21:57;;;;;;;3.10;2.78;;;;;;;28.71;41.07;96375.94;4978675;28;20038;-30
2021/09/15 03:24:23;;;;;;;3.10;2.50;;;;;;;28.72;41.13;96388.16;4990196;28;20034;-29
2021/09/15 03:26:48;;;;;;;5.32;2.67;;;;;;;28.71;40.97;96375.94;4978170;28;20030;-30
2021/09/15 03:29:14;;;;;;;2.92;2.50;;;;;;;28.71;41.13;96370.66;4976599;28;20561;-29
2021/09/15 03:31:39;;;;;;;4.82;2.85;;;;;;;28.67;41.09;96365.59;4975984;28;20029;-29
2021/09/15 03:34:05;;;;;;;4.38;2.55;;;;;;;28.73;40.94;96368.75;4984412;28;20180;-31
2021/09/15 03:36:30;;;;;;;4.82;2.90;;;;;;;28.71;41.13;96365.41;4978908;28;20102;-29
2021/09/15 03:38:55;;;;;;;5.18;2.78;;;;;;;28.72;41.25;96356.53;4984672;28;20043;-36
2021/09/15 03:41:21;;;;;;;5.57;2.50;;;;;;;28.72;41.04;96359.16;4981391;28;20026;-28
2021/09/15 03:43:46;;;;;;;5.88;2.58;;;;;;;28.72;41.00;96359.16;4982927;28;20485;-29
2021/09/15 03:46:12;;;;;;;4.90;2.97;;;;;;;28.73;41.40;96358.19;4979252;28;20037;-28
2021/09/15 03:48:37;;;;;;;4.40;2.78;;;;;;;28.73;41.09;96352.94;4986320;28;20081;-29
2021/09/15 03:51:03;;;;;;;4.22;2.60;;;;;;;28.73;41.02;96339.75;4976194;28;20034;-29
2021/09/15 03:53:28;;;;;;;3.90;2.90;;;;;;;28.73;41.11;96348.50;4978829;28;20490;-31
2021/09/15 03:55:53;;;;;;;3.20;2.58;;;;;;;28.74;41.04;96349.34;4983889;28;20085;-30
2021/09/15 03:58:19;;;;;;;3.70;2.33;;;;;;;28.74;41.05;96350.19;4977807;28;20038;-30
2021/09/15 04:00:44;;;;;;;4.25;2.78;;;;;;;28.73;41.03;96358.19;4979148;28;20029;-31
2021/09/15 04:03:10;;;;;;;3.22;2.53;;;;;;;28.74;41.02;96355.47;4976851;28;20030;-28
2021/09/15 04:05:36;;;;;;;2.88;2.45;;;;;;;28.74;41.04;96359.88;4973786;28;20026;-27
2021/09/15 04:08:01;;;;;;;3.80;2.60;;;;;;;28.75;40.91;96361.59;4977056;28;20030;-29
2021/09/15 04:10:27;;;;;;;3.38;2.97;;;;;;;28.75;40.96;96366.84;4981811;28;21001;-29
2021/09/15 04:12:52;;;;;;;3.33;2.50;;;;;;;28.75;40.98;96364.22;4981912;28;20918;-31
2021/09/15 04:15:17;;;;;;;5.93;2.90;;;;;;;28.74;41.08;96373.06;4980841;28;20041;-29
2021/09/15 04:17:43;;;;;;;3.50;2.63;;;;;;;28.75;40.95;96372.13;4979847;28;20031;-29
2021/09/15 04:20:09;;;;;;;4.72;2.60;;;;;;;28.74;40.92;96366.00;4981409;28;20034;-30
2021/09/15 04:22:36;;;;;;;3.20;2.53;;;;;;;28.74;41.14;96370.44;4982226;28;20032;-29
2021/09/15 04:32:58;;;;;;;4.15;2.60;;;;;;;28.73;41.12;96379.28;4981670;28;20176;-30
2021/09/15 04:35:24;;;;;;;2.65;2.22;;;;;;;28.74;41.13;96388.88;4981588;28;20536;-29
2021/09/15 04:37:49;;;;;;;4.57;2.70;;;;;;;28.73;41.14;96384.56;4980659;28;20038;-30
2021/09/15 04:40:14;;;;;;;3.70;2.50;;;;;;;28.73;41.25;96388.06;4977100;28;20541;-29
2021/09/15 04:42:40;;;;;;;5.95;2.70;;;;;;;28.73;40.93;96395.13;4972341;28;20037;-30
2021/09/15 04:45:06;;;;;;;3.70;2.58;;;;;;;28.73;41.11;96395.97;4981418;28;20038;-31
2021/09/15 04:47:31;;;;;;;4.03;2.53;;;;;;;28.73;41.09;96400.38;4976104;28;20026;-29
2021/09/15 04:49:56;;;;;;;4.05;2.78;;;;;;;28.73;41.13;96397.75;4969888;28;20030;-32
2021/09/15 04:52:22;;;;;;;3.22;2.20;;;;;;;28.73;41.24;96405.66;4977565;28;20073;-31
2021/09/15 04:54:47;;;;;;;2.50;2.25;;;;;;;28.74;41.03;96407.34;4959876;28;20050;-34
2021/09/15 04:57:13;;;;;;;4.03;2.70;;;;;;;28.74;40.98;96404.69;4979819;28;20057;-28
2021/09/15 04:59:38;;;;;;;2.85;2.25;;;;;;;28.75;41.08;96414.31;4976219;28;20154;-28
2021/09/15 05:02:03;;;;;;;5.35;2.65;;;;;;;28.74;41.25;96416.09;4973415;28;20503;-29
2021/09/15 05:04:29;;;;;;;4.18;2.75;;;;;;;28.75;41.06;96416.97;4967073;28;20033;-31
2021/09/15 05:06:55;;;;;;;7.72;2.90;;;;;;;28.75;40.84;96414.31;4974904;28;20031;-29
2021/09/15 05:09:21;;;;;;;3.28;2.42;;;;;;;28.75;41.23;96409.03;4969749;28;20072;-29
2021/09/15 05:11:47;;;;;;;4.07;2.70;;;;;;;28.75;40.99;96420.41;4973844;28;20401;-28
2021/09/15 05:14:12;;;;;;;3.17;2.50;;;;;;;28.75;41.18;96422.22;4972602;28;20038;-28
2021/09/15 05:16:37;;;;;;;4.38;2.50;;;;;;;28.73;41.04;96413.56;4978686;28;20154;-30
2021/09/15 05:19:03;;;;;;;4.10;2.88;;;;;;;28.74;41.19;96409.97;4968195;28;20038;-28
2021/09/15 05:21:28;;;;;;;5.53;2.65;;;;;;;28.74;41.71;96412.63;4978351;28;20042;-29
2021/09/15 05:23:54;;;;;;;2.70;2.33;;;;;;;28.74;41.24;96417.88;4982939;28;20034;-30
2021/09/15 05:26:19;;;;;;;4.95;2.70;;;;;;;28.74;41.14;96417.88;4980857;28;20504;-28
2021/09/15 05:28:44;;;;;;;3.60;2.60;;;;;;;28.74;41.46;96410.84;4984427;28;20520;-29
2021/09/15 05:31:10;;;;;;;4.38;2.78;;;;;;;28.74;41.25;96407.34;4974153;28;20038;-29
2021/09/15 05:33:35;;;;;;;2.90;2.53;;;;;;;28.75;41.33;96409.03;4974245;28;20027;-28
2021/09/15 05:36:01;;;;;;;4.47;2.65;;;;;;;28.74;41.31;96409.97;4981344;28;20096;-30
2021/09/15 05:38:26;;;;;;;4.68;2.35;;;;;;;28.75;41.20;96419.59;4967922;28;20586;-30
2021/09/15 05:40:51;;;;;;;6.28;2.60;;;;;;;28.74;41.40;96417.88;4976977;28;20042;-30
2021/09/15 05:43:17;;;;;;;6.50;2.58;;;;;;;28.73;41.59;96422.34;4975811;28;20041;-29
2021/09/15 05:45:42;;;;;;;3.80;2.30;;;;;;;28.75;41.63;96423.06;4976507;28;20480;-35
2021/09/15 05:48:08;;;;;;;4.25;2.63;;;;;;;28.75;41.47;96423.06;4976625;28;20425;-30
2021/09/15 05:50:33;;;;;;;3.80;2.40;;;;;;;28.75;41.45;96419.59;4981343;28;20106;-34
2021/09/15 05:52:58;;;;;;;3.60;2.42;;;;;;;28.76;41.55;96423.91;4970738;28;20030;-32
2021/09/15 05:55:24;;;;;;;5.90;2.83;;;;;;;28.74;41.38;96423.16;4979416;28;20487;-29
2021/09/15 05:57:49;;;;;;;4.63;2.65;;;;;;;28.75;41.38;96430.13;4978777;28;20727;-28
2021/09/15 06:00:15;;;;;;;6.00;2.60;;;;;;;28.74;41.48;96425.78;4970967;28;20038;-29
2021/09/15 06:02:41;;;;;;;3.72;2.63;;;;;;;28.74;41.50;96425.78;4975530;28;20045;-29
2021/09/15 06:05:06;;;;;;;4.25;2.70;;;;;;;28.73;41.60;96432.88;4985300;28;20325;-29
2021/09/15 06:07:32;;;;;;;5.20;2.75;;;;;;;28.74;41.60;96423.16;4980763;28;20038;-29
2021/09/15 06:09:57;;;;;;;4.05;2.90;;;;;;;28.75;41.23;96430.13;4981162;28;20064;-29
2021/09/15 06:12:23;;;;;;;4.05;2.58;;;;;;;28.75;41.54;96419.59;4975243;28;20026;-28
2021/09/15 06:14:48;;;;;;;5.38;2.92;;;;;;;28.74;41.58;96417.88;4982187;28;20794;-29
2021/09/15 06:17:13;;;;;;;4.25;2.83;;;;;;;28.74;41.61;96415.25;4980777;28;20033;-29
2021/09/15 06:19:39;;;;;;;4.32;2.65;;;;;;;28.73;41.35;96427.59;4977833;28;20034;-29
2021/09/15 06:22:04;;;;;;;4.47;2.60;;;;;;;28.73;41.46;96424.97;4983533;28;20754;-29
2021/09/15 06:24:29;;;;;;;6.28;3.17;;;;;;;28.73;41.60;96426.75;4978906;28;20045;-28
2021/09/15 06:26:55;;;;;;;2.65;2.45;;;;;;;28.73;41.54;96426.75;4978596;28;20030;-29
2021/09/15 06:29:20;;;;;;;5.20;3.08;;;;;;;28.72;41.42;96428.53;4976578;28;20132;-29
2021/09/15 06:31:46;;;;;;;3.90;2.60;;;;;;;28.72;41.67;96425.91;4979366;28;20026;-28
2021/09/15 06:34:11;;;;;;;3.10;2.72;;;;;;;28.74;41.48;96428.44;4980638;28;20556;-29
2021/09/15 06:36:40;;;;;;;7.22;2.70;;;;;;;28.74;41.39;96431.06;4979935;28;20516;-28
2021/09/15 06:39:06;;;;;;;3.45;2.70;;;;;;;28.73;41.68;96422.34;4979044;28;20061;-29
2021/09/15 06:41:32;;;;;;;4.95;2.90;;;;;;;28.72;41.56;96409.25;4979986;28;20501;-31
2021/09/15 06:43:57;;;;;;;7.15;3.03;;;;;;;28.73;41.54;96408.28;4978905;28;20022;-28
2021/09/15 06:46:23;;;;;;;10.80;3.92;;;;;;;28.72;41.64;96407.44;4974820;28;20327;-28
2021/09/15 06:48:49;;;;;;;15.85;4.70;;;;;;;28.71;41.59;96408.41;4979194;28;20038;-28
2021/09/15 06:51:15;;;;;;;14.27;5.30;;;;;;;28.72;41.73;96409.25;4978249;28;20487;-28
2021/09/15 06:53:40;;;;;;;15.77;5.97;;;;;;;28.72;41.78;96398.72;4979222;28;20045;-30
2021/09/15 06:56:05;;;;;;;8.88;4.13;;;;;;;28.71;41.96;96397.03;4986213;28;20030;-29
2021/09/15 06:58:31;;;;;;;9.43;4.80;;;;;;;28.69;42.07;96395.31;4974851;28;20026;-28
2021/09/15 07:00:56;;;;;;;9.60;4.30;;;;;;;28.69;42.16;96397.97;4977558;28;20456;-26
2021/09/15 07:03:21;;;;;;;11.35;4.45;;;;;;;28.68;42.21;96383.09;4980806;28;20037;-29
2021/09/15 07:05:47;;;;;;;12.77;4.53;;;;;;;28.68;42.07;96390.19;4970270;28;20515;-28
2021/09/15 07:08:12;;;;;;;12.65;5.07;;;;;;;28.69;42.22;96410.31;4979287;28;20042;-31
2021/09/15 07:10:39;;;;;;;6.90;4.10;;;;;;;28.67;42.13;96413.06;4976166;28;20412;-29
2021/09/15 07:13:05;;;;;;;9.73;3.85;;;;;;;28.67;42.15;96413.06;4976043;28;20037;-28
2021/09/15 07:15:31;;;;;;;13.52;4.40;;;;;;;28.66;42.15;96411.38;4978380;28;20030;-28
2021/09/15 07:17:56;;;;;;;11.43;4.30;;;;;;;28.67;42.16;96415.69;4983441;28;22245;-29
2021/09/15 07:20:21;;;;;;;8.50;4.15;;;;;;;28.68;42.10;96409.47;4989255;28;20081;-28
2021/09/15 07:22:47;;;;;;;9.23;4.07;;;;;;;28.67;41.96;96407.78;4979318;28;20061;-28
2021/09/15 07:25:12;;;;;;;10.52;4.13;;;;;;;28.68;42.03;96408.66;4978141;28;20034;-30
2021/09/15 07:27:38;;;;;;;10.50;3.95;;;;;;;28.68;42.21;96409.47;4981939;28;20096;-28
2021/09/15 07:30:04;;;;;;;7.15;4.15;;;;;;;28.67;42.00;96415.69;4979581;28;20029;-29
2021/09/15 07:32:29;;;;;;;7.88;3.90;;;;;;;28.68;42.00;96408.66;4981641;28;20907;-28
2021/09/15 07:34:54;;;;;;;7.05;3.65;;;;;;;28.68;42.01;96420.00;4976116;28;20042;-32
2021/09/15 07:37:20;;;;;;;11.48;4.03;;;;;;;28.67;42.20;96428.03;4979170;28;20062;-28
2021/09/15 07:39:45;;;;;;;7.28;3.67;;;;;;;28.67;42.18;96420.97;4978419;28;20077;-29
2021/09/15 07:42:11;;;;;;;8.65;3.42;;;;;;;28.67;42.15;96420.13;4979089;28;20092;-27
2021/09/15 07:44:36;;;;;;;17.23;4.00;;;;;;;28.67;42.00;96428.03;4979025;28;20076;-29
2021/09/15 07:47:02;;;;;;;11.75;3.90;;;;;;;28.67;42.35;96412.22;4979042;28;21664;-28
2021/09/15 07:49:28;;;;;;;6.55;3.03;;;;;;;28.68;42.45;96421.81;4976428;28;20544;-26
2021/09/15 07:51:53;;;;;;;8.45;4.00;;;;;;;28.68;42.13;96424.47;4975349;28;20037;-29
2021/09/15 07:54:19;;;;;;;9.13;3.63;;;;;;;28.66;42.31;96421.94;4977032;28;20452;-28
2021/09/15 07:56:44;;;;;;;7.50;3.60;;;;;;;28.68;42.36;96433.19;4975585;28;20568;-28
2021/09/15 07:59:09;;;;;;;7.13;3.53;;;;;;;28.66;42.46;96437.75;4975430;28;20033;-29
2021/09/15 08:01:35;;;;;;;7.00;3.60;;;;;;;28.68;42.28;96445.56;4975105;28;20030;-29
2021/09/15 08:04:00;;;;;;;9.10;3.72;;;;;;;28.68;42.34;96453.47;4977343;28;20034;-29
2021/09/15 08:06:26;;;;;;;8.43;2.97;;;;;;;28.68;42.32;96451.66;4976759;28;20034;-28
2021/09/15 08:08:52;;;;;;;7.80;3.28;;;;;;;28.67;42.49;96449.97;4978852;28;20061;-28
2021/09/15 08:11:18;;;;;;;10.18;3.67;;;;;;;28.68;42.38;96456.94;4987351;28;20578;-29
2021/09/15 08:13:43;;;;;;;13.23;4.68;;;;;;;28.68;42.30;96451.66;4977597;28;20497;-27
2021/09/15 08:16:09;;;;;;;10.15;4.25;;;;;;;28.68;42.38;96462.19;4974954;28;20088;-29
2021/09/15 08:18:34;;;;;;;14.95;4.03;;;;;;;28.67;42.42;96471.06;4975736;28;20420;-32
2021/09/15 08:21:00;;;;;;;12.55;4.00;;;;;;;28.67;42.51;96471.06;4973839;28;20481;-30
2021/09/15 08:23:26;;;;;;;12.55;3.85;;;;;;;28.64;42.48;96476.53;4976934;28;20083;-29
2021/09/15 08:25:51;;;;;;;9.38;4.13;;;;;;;28.64;42.45;96487.09;4959724;28;21017;-29
2021/09/15 08:28:17;;;;;;;10.57;4.40;;;;;;;28.62;42.70;96467.91;4976403;28;20038;-28
2021/09/15 08:30:42;;;;;;;8.50;3.97;;;;;;;28.60;42.47;96463.69;4976593;28;20026;-28
2021/09/15 08:33:07;;;;;;;8.60;3.70;;;;;;;28.59;42.62;96473.41;4975586;28;20057;-28
2021/09/15 08:35:33;;;;;;;8.10;3.83;;;;;;;28.58;42.48;96466.44;4974197;28;20030;-29
2021/09/15 08:37:59;;;;;;;7.30;3.88;;;;;;;28.57;42.92;96464.75;4978472;28;20116;-28
2021/09/15 08:40:25;;;;;;;10.70;3.72;;;;;;;28.57;42.61;96464.75;4976121;28;20067;-28
2021/09/15 08:42:50;;;;;;;7.43;3.72;;;;;;;28.56;42.69;96457.78;4978599;28;20098;-28
2021/09/15 08:45:16;;;;;;;11.73;4.05;;;;;;;28.54;42.93;96470.25;4979913;28;20049;-30
2021/09/15 08:47:46;;;;;;;7.75;3.80;;;;;;;28.54;42.67;96470.25;4980496;28;20698;-27
2021/09/15 08:50:12;;;;;;;8.60;4.13;;;;;;;28.49;42.78;96462.63;4963475;28;20034;-29
2021/09/15 08:52:38;;;;;;;7.88;3.83;;;;;;;28.49;42.70;96477.63;4977371;28;20022;-29
2021/09/15 08:55:04;;;;;;;9.73;3.75;;;;;;;28.47;42.74;96471.59;4975641;28;20114;-28
2021/09/15 08:57:29;;;;;;;7.03;3.75;;;;;;;28.45;42.74;96481.44;4989020;28;20030;-32
2021/09/15 08:59:54;;;;;;;8.88;3.83;;;;;;;28.41;42.75;96465.81;4976899;28;20030;-29
2021/09/15 09:02:20;;;;;;;7.93;3.60;;;;;;;28.40;42.68;96468.56;4978637;28;20034;-29
2021/09/15 09:05:00;;;;;;;5.05;3.20;;;;;;;28.38;42.55;96468.66;4982354;28;20026;-27
2021/09/15 09:07:25;;;;;;;5.18;3.30;;;;;;;28.36;42.55;96473.19;4995465;28;20125;-28
2021/09/15 09:09:52;;;;;;;7.70;3.35;;;;;;;28.34;42.69;96475.09;4979395;28;20648;-29
2021/09/15 09:12:18;;;;;;;7.65;3.58;;;;;;;28.31;42.53;96464.78;4978532;28;20496;-27
2021/09/15 09:14:44;;;;;;;7.78;3.60;;;;;;;28.30;42.51;96457.81;4981834;28;20058;-27
2021/09/15 09:17:25;;;;;;;8.35;3.50;;;;;;;28.29;42.55;96466.66;4974779;28;20033;-27
2021/09/15 09:19:50;;;;;;;5.55;3.40;;;;;;;28.26;42.37;96472.97;4976297;28;20034;-29
2021/09/15 09:22:16;;;;;;;7.97;3.45;;;;;;;28.24;42.65;96474.00;4964622;28;20493;-27
2021/09/15 09:24:46;;;;;;;8.50;3.40;;;;;;;28.22;42.53;96466.19;4981655;28;20010;-32
2021/09/15 09:27:11;;;;;;;6.95;3.42;;;;;;;28.23;42.51;96472.31;4959808;28;20045;-29
2021/09/15 09:29:37;;;;;;;6.32;3.00;;;;;;;28.20;42.46;96468.13;4976665;28;20038;-30
2021/09/15 09:32:06;;;;;;;9.77;3.58;;;;;;;28.18;42.50;96470.84;4976410;28;20056;-27
2021/09/15 09:34:46;;;;;;;7.65;2.75;;;;;;;28.18;42.43;96470.84;4975726;28;20045;-29
2021/09/15 09:37:17;;;;;;;6.55;3.00;;;;;;;28.17;42.63;96468.31;4974251;28;20120;-28
2021/09/15 09:39:44;;;;;;;7.05;3.20;;;;;;;28.17;42.50;96468.31;4974044;28;20026;-28
2021/09/15 09:42:40;;;;;;;4.85;3.20;;;;;;;28.16;42.81;96467.50;4972090;28;20038;-29
2021/09/15 09:45:05;;;;;;;5.90;3.20;;;;;;;28.16;42.78;96472.75;4961084;28;20034;-30
2021/09/15 09:47:31;;;;;;;7.30;3.50;;;;;;;28.15;42.70;96464.97;4974746;28;20036;-30
2021/09/15 09:49:58;;;;;;;8.85;3.22;;;;;;;28.15;42.70;96468.41;4981042;28;20157;-31
2021/09/15 09:52:23;;;;;;;8.82;3.10;;;;;;;28.13;43.17;96478.22;4971648;28;20030;-31
2021/09/15 09:54:56;;;;;;;4.47;3.10;;;;;;;28.09;43.23;96468.84;4957311;28;20041;-26
2021/09/15 09:57:22;;;;;;;6.70;3.10;;;;;;;28.07;43.46;96480.44;4957923;28;20034;-29
2021/09/15 09:59:47;;;;;;;5.10;2.95;;;;;;;28.03;43.64;96477.13;4972966;28;20049;-26
2021/09/15 10:02:13;;;;;;;4.85;2.88;;;;;;;28.02;43.82;96470.19;4957788;28;20374;-28
2021/09/15 10:04:38;;;;;;;6.47;3.10;;;;;;;28.04;43.78;96470.94;4960374;28;20472;-27
2021/09/15 10:07:04;;;;;;;5.75;3.17;;;;;;;28.09;43.96;96471.47;4955820;28;20790;-28
2021/09/15 10:09:30;;;;;;;5.65;2.95;;;;;;;28.16;44.00;96470.13;4974466;28;20087;-25
2021/09/15 10:11:56;;;;;;;6.28;2.70;;;;;;;28.25;43.57;96466.03;4958815;28;20027;-27
2021/09/15 10:14:21;;;;;;;5.85;2.70;;;;;;;28.36;43.46;96462.66;4972582;28;20377;-26
2021/09/15 10:16:50;;;;;;;8.32;3.13;;;;;;;28.46;43.21;96465.50;4974645;28;20033;-27
2021/09/15 10:19:16;;;;;;;5.60;2.95;;;;;;;28.58;42.92;96461.16;4971316;28;20148;-27
2021/09/15 10:21:41;;;;;;;5.75;2.95;;;;;;;28.71;42.77;96460.31;4979357;28;20030;-30
2021/09/15 10:24:07;;;;;;;11.43;2.78;;;;;;;28.82;42.64;96452.47;4972502;28;20029;-30
2021/09/15 10:26:32;;;;;;;4.63;2.92;;;;;;;28.95;42.04;96463.03;4957149;28;20053;-27
2021/09/15 10:29:23;;;;;;;3.75;2.50;;;;;;;29.11;41.56;96460.13;4972776;28;20034;-28
2021/09/15 10:31:48;;;;;;;6.07;3.07;;;;;;;29.25;41.54;96459.09;4972891;28;20030;-29
2021/09/15 10:34:36;;;;;;;5.35;2.70;;;;;;;29.39;41.02;96460.75;4974910;28;20014;-29
2021/09/15 10:37:01;;;;;;;5.70;2.50;;;;;;;29.52;41.08;96463.34;4970570;28;20048;-30
2021/09/15 10:39:28;;;;;;;6.03;2.45;;;;;;;29.64;40.53;96453.69;4971359;28;20035;-32
2021/09/15 10:41:57;;;;;;;7.55;2.58;;;;;;;29.77;40.55;96447.47;4975184;28;20026;-28
2021/09/15 10:44:22;;;;;;;6.10;2.88;;;;;;;29.86;40.31;96441.50;4974971;28;20034;-32
2021/09/15 10:46:48;;;;;;;5.13;2.60;;;;;;;29.98;39.82;96453.78;4971652;28;20027;-29
2021/09/15 10:49:22;;;;;;;4.07;2.38;;;;;;;30.05;39.61;96451.50;4979650;28;20057;-32
2021/09/15 10:52:06;;;;;;;5.00;2.70;;;;;;;30.12;39.18;96462.47;4980046;28;21893;-31
2021/09/15 10:54:42;;;;;;;7.07;2.70;;;;;;;30.18;38.81;96455.88;4978853;28;20033;-32
2021/09/15 10:57:36;;;;;;;5.55;2.50;;;;;;;30.20;38.83;96438.09;4979983;28;20502;-31
2021/09/15 11:00:21;;;;;;;5.90;2.97;;;;;;;30.21;38.34;96434.53;4980809;28;20093;-31
2021/09/15 11:02:49;;;;;;;4.90;2.28;;;;;;;30.21;38.81;96440.63;4981564;28;20034;-32
2021/09/15 11:05:26;;;;;;;6.28;2.72;;;;;;;30.20;38.85;96444.25;4978634;28;20087;-31
2021/09/15 11:07:53;;;;;;;3.80;2.50;;;;;;;30.20;39.15;96438.09;4978785;28;20104;-31
2021/09/15 11:10:31;;;;;;;4.20;2.40;;;;;;;30.18;39.07;96435.59;4979563;28;20026;-29
2021/09/15 11:12:56;;;;;;;6.95;2.63;;;;;;;30.18;38.86;96432.09;4979661;28;20576;-30
2021/09/15 11:15:25;;;;;;;4.20;2.40;;;;;;;30.17;39.18;96433.91;4977679;28;20444;-30
2021/09/15 11:17:53;;;;;;;4.15;2.15;;;;;;;30.17;38.87;96438.34;4979560;28;20032;-31
2021/09/15 11:20:22;;;;;;;3.97;2.50;;;;;;;30.16;39.04;96437.50;4981575;28;20085;-31
2021/09/15 11:22:48;;;;;;;4.70;2.35;;;;;;;30.17;38.89;96431.25;4978527;28;20033;-28
2021/09/15 11:25:20;;;;;;;3.00;2.15;;;;;;;30.19;38.86;96432.00;4983608;28;20026;-29
2021/09/15 11:28:08;;;;;;;4.65;2.47;;;;;;;30.22;39.12;96425.63;4982791;28;20033;-31
2021/09/15 11:30:41;;;;;;;4.10;2.10;;;;;;;30.25;39.09;96433.31;4977980;28;20037;-30
2021/09/15 11:33:07;;;;;;;4.30;2.13;;;;;;;30.28;38.76;96432.25;4974859;28;20034;-31
2021/09/15 11:35:34;;;;;;;3.90;2.05;;;;;;;30.31;38.73;96431.97;4976657;28;20734;-31